Time;durP1;ratioP1;P1;durP2;ratioP2;P2;SDS_P1;SDS_P2;PMS_P1;PMS_P2;Temp;Humidity;BMP_temperature;BMP_pressure;BME280_temperature;BME280_humidity;BME280_pressure;Samples;Min_cycle;Max_cycle;Signal;HPM_P1;HPM_P2
2021/11/30 00:00:01;;;;;;;43.25;21.40;;;;;;;0.72;93.07;97754.80;4341415;80;21565;-87
2021/11/30 00:06:07;;;;;;;;;;;;;;;0.72;93.10;97753.45;4288748;81;21087;-86
2021/11/30 00:12:16;;;;;;;40.30;21.50;;;;;;;0.73;93.13;97755.59;4292041;81;20205;-86
2021/11/30 00:18:17;;;;;;;43.78;23.67;;;;;;;0.75;93.23;97766.23;4342113;80;21586;-86
2021/11/30 00:24:19;;;;;;;43.80;21.82;;;;;;;0.77;93.15;97765.34;4347103;80;21030;-86
2021/11/30 00:30:22;;;;;;;35.48;18.25;;;;;;;0.79;92.87;97774.42;4346561;80;21102;-86
2021/11/30 00:36:23;;;;;;;35.57;18.47;;;;;;;0.78;92.85;97779.05;4350344;80;21050;-86
2021/11/30 00:42:25;;;;;;;38.45;18.65;;;;;;;0.76;92.99;97797.45;4348496;80;21055;-86
2021/11/30 00:48:30;;;;;;;41.75;19.80;;;;;;;0.70;93.29;97808.80;4348392;80;20980;-89
2021/11/30 00:54:32;;;;;;;41.60;20.72;;;;;;;0.59;93.58;97825.98;4339863;80;21547;-86
2021/11/30 01:00:35;;;;;;;52.50;23.47;;;;;;;0.49;93.88;97837.75;4301651;81;22065;-85
2021/11/30 01:06:39;;;;;;;45.03;20.68;;;;;;;0.42;93.97;97849.09;4350834;80;21509;-85
2021/11/30 01:12:41;;;;;;;43.05;21.10;;;;;;;0.43;94.47;97853.91;4352940;80;21094;-86
2021/11/30 01:18:42;;;;;;;44.45;22.10;;;;;;;0.38;94.56;97864.89;4309732;81;20996;-86
2021/11/30 01:24:48;;;;;;;;;;;;;;;0.35;94.88;97865.56;4291936;81;21088;-86
2021/11/30 01:30:52;;;;;;;36.00;18.50;;;;;;;0.37;95.08;97867.37;4310259;81;20562;-86
2021/11/30 01:36:53;;;;;;;39.03;19.23;;;;;;;0.37;95.15;97872.20;4318020;81;21101;-88
2021/11/30 01:42:58;;;;;;;41.08;21.15;;;;;;;0.22;94.96;97864.00;4304661;81;21063;-89
2021/11/30 01:55:19;;;;;;;49.08;23.30;;;;;;;0.31;95.61;97890.25;4312689;80;21736;-85
2021/11/30 02:01:22;;;;;;;43.50;22.40;;;;;;;0.32;95.73;97894.50;4393792;79;21046;-86
2021/11/30 02:07:23;;;;;;;40.48;23.18;;;;;;;0.32;95.93;97894.50;4357405;80;21066;-85
2021/11/30 02:13:25;;;;;;;44.67;23.10;;;;;;;0.35;95.73;97908.08;4362368;80;20987;-87
2021/11/30 02:19:28;;;;;;;44.08;23.25;;;;;;;0.35;96.00;97901.35;4358446;80;21046;-85
2021/11/30 02:25:30;;;;;;;38.28;20.17;;;;;;;0.38;95.96;97907.41;4327591;80;21640;-87
2021/11/30 02:31:36;;;;;;;39.13;19.52;;;;;;;0.43;96.09;97920.66;4409790;79;21098;-86
2021/11/30 02:37:43;;;;;;;;;;;;;;;0.45;96.21;97927.85;4342738;80;21058;-88
2021/11/30 02:43:42;;;;;;;34.25;18.35;;;;;;;0.49;96.30;97922.02;4343240;80;20513;-87
2021/11/30 02:49:44;;;;;;;36.53;19.37;;;;;;;0.49;95.95;97924.70;4344997;80;21002;-86
2021/11/30 02:55:46;;;;;;;39.35;20.35;;;;;;;0.51;95.96;97930.55;4333169;80;20983;-89
2021/11/30 03:02:09;;;;;;;30.57;19.10;;;;;;;0.50;96.01;97936.27;4403041;79;21061;-87
2021/11/30 03:08:10;;;;;;;34.18;18.90;;;;;;;0.46;95.87;97926.72;4334003;80;21082;-88
2021/11/30 03:14:12;;;;;;;39.30;19.75;;;;;;;0.42;96.17;97939.30;4373894;80;21537;-84
2021/11/30 03:20:14;;;;;;;38.65;18.67;;;;;;;0.38;96.41;97930.84;4377210;80;21897;-85
2021/11/30 03:26:16;;;;;;;32.67;18.02;;;;;;;0.36;96.44;97946.56;4375574;80;21010;-87
2021/11/30 03:38:37;;;;;;;38.67;20.17;;;;;;;0.41;96.42;97943.66;4348990;80;21038;-85
2021/11/30 03:44:39;;;;;;;38.50;19.65;;;;;;;0.42;96.55;97941.19;4379887;80;21054;-86
2021/11/30 03:51:58;;;;;;;41.58;21.85;;;;;;;0.48;96.64;97938.50;4370810;78;23411;-84
2021/11/30 03:58:06;;;;;;;39.08;20.25;;;;;;;0.45;96.59;97941.31;4247131;80;21117;-84
2021/11/30 04:04:24;;;;;;;38.60;21.20;;;;;;;0.47;96.60;97933.67;4260980;80;21034;-85
2021/11/30 04:10:35;;;;;;;37.08;19.52;;;;;;;0.51;96.67;97931.09;4209156;79;136933;-84
2021/11/30 04:17:06;;;;;;;36.90;19.95;;;;;;;0.51;96.56;97942.66;4178722;82;21114;-83
2021/11/30 04:23:08;;;;;;;35.03;19.10;;;;;;;0.52;96.70;97942.12;4149760;83;21071;-83
2021/11/30 04:29:10;;;;;;;30.72;17.23;;;;;;;0.55;96.64;97950.87;4128723;83;21147;-85
2021/11/30 04:35:22;;;;;;;35.15;18.55;;;;;;;0.56;96.62;97949.73;4176622;83;21192;-84
2021/11/30 04:41:24;;;;;;;32.67;18.15;;;;;;;0.55;96.63;97954.91;4170856;83;21090;-82
2021/11/30 04:47:53;;;;;;;32.08;16.75;;;;;;;0.57;96.73;97946.70;4119371;84;21074;-84
2021/11/30 04:54:06;;;;;;;29.42;16.93;;;;;;;0.57;96.63;97952.64;4118932;84;21046;-84
2021/11/30 05:00:08;;;;;;;32.15;16.75;;;;;;;0.55;96.58;97952.22;4132144;84;21031;-84
2021/11/30 05:12:41;;;;;;;30.97;16.37;;;;;;;0.55;96.78;97950.87;4104212;85;21088;-84
2021/11/30 05:18:42;;;;;;;30.80;17.45;;;;;;;0.57;96.62;97957.48;4065214;84;21077;-84
2021/11/30 05:24:44;;;;;;;32.63;17.77;;;;;;;0.55;96.62;97957.02;4107040;84;21117;-84
2021/11/30 05:37:36;;;;;;;23.57;13.68;;;;;;;0.57;96.72;97956.69;4060888;86;21028;-82
2021/11/30 05:43:48;;;;;;;24.75;13.18;;;;;;;0.57;96.63;97958.83;4016844;86;38721;-84
2021/11/30 05:49:53;;;;;;;27.50;14.05;;;;;;;0.58;96.72;97957.70;3954823;88;21548;-83
2021/11/30 05:56:12;;;;;;;22.35;12.93;;;;;;;0.58;96.79;97963.08;3947831;88;21120;-84
2021/11/30 06:02:40;;;;;;;22.90;13.50;;;;;;;0.61;96.47;97964.34;3937606;88;21188;-85
2021/11/30 06:08:36;;;;;;;24.32;13.20;;;;;;;0.61;96.53;97962.99;4007869;86;21137;-84
2021/11/30 06:14:39;;;;;;;28.20;14.98;;;;;;;0.61;96.41;97962.41;4027327;86;21145;-84
2021/11/30 06:21:02;;;;;;;30.02;16.10;;;;;;;0.64;96.44;97963.66;4013419;86;21153;-84
2021/11/30 06:27:04;;;;;;;28.60;16.60;;;;;;;0.67;96.44;97958.95;3991048;87;21184;-85
2021/11/30 06:39:22;;;;;;;21.15;12.80;;;;;;;0.70;96.20;97948.30;4006390;87;21049;-84
2021/11/30 06:45:30;;;;;;;24.10;14.25;;;;;;;0.69;95.73;97948.64;4003750;87;21064;-84
2021/11/30 06:58:06;;;;;;;25.43;14.47;;;;;;;0.69;95.87;97954.80;4024858;86;21141;-84
2021/11/30 07:04:07;;;;;;;28.73;15.85;;;;;;;0.69;95.76;97955.38;4032314;86;21110;-84
2021/11/30 07:16:29;;;;;;;23.35;12.95;;;;;;;0.73;95.52;97957.06;3948190;88;21133;-83
2021/11/30 07:22:32;;;;;;;24.72;13.15;;;;;;;0.73;95.64;97963.00;3957261;87;21078;-84
2021/11/30 07:28:36;;;;;;;25.55;14.30;;;;;;;0.77;95.24;97961.19;3989877;88;21560;-83
2021/11/30 07:34:38;;;;;;;26.70;14.13;;;;;;;0.83;95.15;97953.14;3969455;87;21128;-83
2021/11/30 07:47:30;;;;;;;23.70;13.58;;;;;;;0.88;95.22;97949.64;4032607;85;46892;-85
2021/11/30 07:53:31;;;;;;;24.85;13.58;;;;;;;0.96;95.03;97944.70;4022931;86;21551;-84
2021/11/30 07:59:38;;;;;;;21.82;13.72;;;;;;;0.97;95.05;97936.08;4010831;86;21099;-84
2021/11/30 08:06:09;;;;;;;25.35;14.30;;;;;;;0.91;94.97;97919.91;4018487;86;21702;-85
2021/11/30 08:12:10;;;;;;;25.60;15.25;;;;;;;0.88;95.13;97916.52;4027594;86;21079;-84
2021/11/30 08:18:12;;;;;;;29.18;16.45;;;;;;;0.91;95.19;97907.79;4028632;86;21119;-84
2021/11/30 08:24:13;;;;;;;23.32;13.78;;;;;;;0.94;95.45;97904.42;4033150;86;21039;-84
2021/11/30 08:30:38;;;;;;;16.60;9.75;;;;;;;1.02;95.58;97894.05;4028524;87;21027;-84
2021/11/30 08:36:39;;;;;;;17.45;11.12;;;;;;;1.19;95.38;97885.16;4068686;85;21608;-83
2021/11/30 08:42:41;;;;;;;21.00;11.48;;;;;;;1.45;95.94;97883.41;4040893;86;21373;-85
2021/11/30 08:48:42;;;;;;;19.65;12.07;;;;;;;1.59;95.02;97880.56;4036462;86;21036;-84
2021/11/30 08:55:05;;;;;;;17.75;10.68;;;;;;;1.65;95.14;97882.44;4062325;85;21103;-83
2021/11/30 09:01:11;;;;;;;19.30;10.35;;;;;;;1.71;94.88;97879.71;4020560;86;21607;-84
2021/11/30 09:07:16;;;;;;;;;;;;;;;1.76;94.31;97878.12;4022649;86;21151;-83
2021/11/30 09:13:18;;;;;;;15.75;9.20;;;;;;;1.89;94.17;97866.16;3985033;86;20133;-84
2021/11/30 09:19:28;;;;;;;13.70;8.93;;;;;;;2.00;94.15;97847.53;4031846;85;21063;-82
2021/11/30 09:25:30;;;;;;;11.75;6.75;;;;;;;2.06;93.39;97844.80;4050061;85;21573;-83
2021/11/30 09:31:38;;;;;;;12.98;8.05;;;;;;;2.10;92.33;97840.28;4048609;85;21083;-84
2021/11/30 09:37:40;;;;;;;9.58;5.92;;;;;;;2.06;92.62;97820.50;4030135;86;21098;-83
2021/11/30 09:43:42;;;;;;;19.35;7.37;;;;;;;2.18;91.59;97801.51;4031479;86;21015;-84
2021/11/30 09:56:14;;;;;;;12.33;6.50;;;;;;;2.55;90.75;97768.45;4014409;86;21102;-84
2021/11/30 10:02:20;;;;;;;8.98;5.75;;;;;;;2.78;89.79;97765.88;4042071;85;21130;-85
2021/11/30 10:15:09;;;;;;;7.45;5.58;;;;;;;3.96;87.41;97736.10;4015402;86;21132;-85
2021/11/30 10:28:09;;;;;;;6.28;4.50;;;;;;;3.66;86.71;97694.03;4094250;83;21170;-85
2021/11/30 10:34:40;;;;;;;8.65;4.85;;;;;;;3.47;84.34;97689.22;4089929;84;21491;-84
2021/11/30 10:46:51;;;;;;;8.08;4.65;;;;;;;3.63;82.23;97646.04;3949501;87;21119;-85
2021/11/30 10:53:24;;;;;;;9.00;4.15;;;;;;;3.71;83.29;97627.98;3942775;88;21074;-85
2021/11/30 10:59:27;;;;;;;6.20;3.50;;;;;;;3.90;84.24;97622.48;3952881;87;22045;-85
2021/11/30 11:05:44;;;;;;;7.47;3.62;;;;;;;4.04;82.61;97595.03;4047957;85;21143;-85
2021/11/30 11:11:56;;;;;;;10.75;6.30;;;;;;;3.92;80.55;97589.05;4070391;84;21123;-85
2021/11/30 11:18:31;;;;;;;10.80;6.12;;;;;;;3.84;77.79;97565.16;4105940;84;21071;-85
2021/11/30 11:24:37;;;;;;;10.70;5.22;;;;;;;3.70;79.33;97552.77;4068236;85;21086;-85
2021/11/30 11:37:00;;;;;;;9.10;4.78;;;;;;;3.65;79.46;97533.38;4065140;84;21141;-85
2021/11/30 11:43:19;;;;;;;9.70;4.12;;;;;;;3.64;78.50;97506.88;4027487;86;21576;-85
2021/11/30 11:49:27;;;;;;;7.75;4.17;;;;;;;3.64;77.17;97485.23;3855334;87;62158;-83
2021/11/30 11:55:31;;;;;;;11.55;5.33;;;;;;;3.69;75.12;97467.89;3835572;90;21107;-85
2021/11/30 12:01:32;;;;;;;5.58;3.30;;;;;;;3.69;77.49;97459.20;3858249;87;2198713;-85
2021/11/30 12:07:59;;;;;;;8.88;4.35;;;;;;;3.64;75.89;97441.14;3853565;88;21172;-84
2021/11/30 12:14:22;;;;;;;6.42;4.00;;;;;;;3.47;76.66;97426.24;3852228;90;21070;-84
2021/11/30 12:26:41;;;;;;;7.35;3.90;;;;;;;3.28;77.55;97387.70;3935695;88;21186;-83
2021/11/30 12:32:46;;;;;;;7.78;4.83;;;;;;;3.23;76.39;97376.07;3950313;87;21153;-84
2021/11/30 12:39:04;;;;;;;13.15;6.08;;;;;;;2.95;77.48;97351.34;3910270;87;21129;-83
2021/11/30 12:45:40;;;;;;;11.68;5.70;;;;;;;2.80;78.24;97325.83;3936877;88;21062;-85
2021/11/30 12:51:45;;;;;;;9.53;5.17;;;;;;;2.69;78.56;97297.88;4047420;85;21109;-85
2021/11/30 12:58:02;;;;;;;9.63;5.05;;;;;;;2.58;78.32;97280.73;4022451;85;21066;-85
2021/11/30 13:04:32;;;;;;;9.03;4.90;;;;;;;2.35;78.79;97259.74;4031717;84;21051;-85
2021/11/30 13:16:47;;;;;;;10.18;4.80;;;;;;;2.23;79.36;97236.41;4058814;84;21535;-85
2021/11/30 13:22:49;;;;;;;16.90;5.95;;;;;;;2.32;79.22;97249.08;4043608;85;21548;-83
2021/11/30 13:28:58;;;;;;;22.52;5.85;;;;;;;2.33;78.88;97230.41;3966479;87;21555;-82
2021/11/30 13:42:02;;;;;;;15.70;5.90;;;;;;;2.25;79.24;97216.59;3874366;89;21098;-83
2021/11/30 13:48:10;;;;;;;13.72;5.55;;;;;;;2.16;79.66;97209.88;3800691;91;21175;-84
2021/11/30 13:54:19;;;;;;;23.70;6.20;;;;;;;2.06;79.91;97202.39;3769874;90;21231;-84
2021/11/30 14:00:47;;;;;;;9.55;4.95;;;;;;;2.06;80.13;97192.94;3803742;90;21673;-84
2021/11/30 14:06:53;;;;;;;12.80;5.25;;;;;;;2.04;80.39;97181.72;3934849;88;21109;-85
2021/11/30 14:13:00;;;;;;;9.63;4.58;;;;;;;2.04;80.36;97162.27;3941602;88;21099;-83
2021/11/30 14:25:10;;;;;;;10.85;5.15;;;;;;;2.05;80.11;97139.53;4051251;85;21535;-85
2021/11/30 14:31:11;;;;;;;8.25;4.17;;;;;;;2.04;80.47;97132.58;4034711;84;21039;-84
2021/11/30 14:37:35;;;;;;;10.75;4.00;;;;;;;2.06;80.61;97119.52;4050408;85;21058;-83
2021/11/30 14:43:38;;;;;;;8.10;4.00;;;;;;;1.98;81.53;97113.02;3973345;87;21069;-84
2021/11/30 14:49:43;;;;;;;9.48;4.75;;;;;;;1.83;81.86;97114.75;4056399;85;21106;-84
2021/11/30 15:08:39;;;;;;;5.43;3.40;;;;;;;1.36;84.02;97068.55;4110631;83;33968;-83
2021/11/30 15:14:46;;;;;;;10.85;3.92;;;;;;;1.32;85.46;97050.96;4136446;82;21124;-84
2021/11/30 15:27:07;;;;;;;8.70;4.05;;;;;;;1.37;85.55;97025.05;4134497;83;21718;-82
2021/11/30 15:33:08;;;;;;;10.40;5.17;;;;;;;1.46;86.89;97025.56;4137503;84;21560;-84
2021/11/30 15:39:14;;;;;;;8.00;3.92;;;;;;;1.50;85.74;97026.98;4112681;84;21548;-82
2021/11/30 15:45:27;;;;;;;9.55;4.83;;;;;;;1.55;86.93;97031.47;4107047;84;21558;-83
2021/11/30 15:51:57;;;;;;;8.27;3.70;;;;;;;1.52;86.41;97013.33;4018573;86;21081;-82
2021/11/30 15:58:01;;;;;;;10.63;4.50;;;;;;;1.57;86.31;97005.48;4077816;84;21103;-83
2021/11/30 16:04:02;;;;;;;7.08;3.22;;;;;;;1.71;86.52;97011.08;4101730;83;21091;-84
2021/11/30 16:16:42;;;;;;;9.38;4.12;;;;;;;1.82;86.50;97004.50;4055933;85;21142;-83
2021/11/30 16:22:47;;;;;;;6.30;3.15;;;;;;;1.83;86.70;96991.99;4068845;85;21048;-84
2021/11/30 16:28:48;;;;;;;5.87;3.30;;;;;;;1.83;86.81;96981.20;4084930;85;21070;-84
2021/11/30 16:34:56;;;;;;;6.87;3.17;;;;;;;1.88;86.76;96990.30;4029882;86;21055;-84
2021/11/30 16:41:06;;;;;;;10.72;3.35;;;;;;;1.93;86.76;96985.94;4026314;84;21588;-85
2021/11/30 16:47:08;;;;;;;8.35;3.25;;;;;;;2.04;86.46;96973.91;4083122;84;21204;-83
2021/11/30 16:53:23;;;;;;;7.53;3.17;;;;;;;2.10;86.44;96969.77;4027923;86;21567;-83
2021/11/30 16:59:27;;;;;;;5.80;2.75;;;;;;;2.18;86.18;96964.63;3994867;86;21052;-84
2021/11/30 17:05:30;;;;;;;4.92;2.22;;;;;;;2.25;86.09;96965.52;4131257;84;22269;-84
2021/11/30 17:11:31;;;;;;;6.83;2.62;;;;;;;2.31;85.95;96965.38;4113610;83;21059;-85
2021/11/30 17:23:59;;;;;;;6.95;2.27;;;;;;;2.52;85.00;96972.93;4087867;85;21117;-85
2021/11/30 17:30:02;;;;;;;12.43;4.03;;;;;;;2.52;84.54;96954.78;4047475;86;21123;-85
2021/11/30 17:36:04;;;;;;;11.43;4.40;;;;;;;2.55;84.62;96955.39;4046224;85;21071;-85
2021/11/30 17:42:14;;;;;;;11.73;4.22;;;;;;;2.55;84.44;96960.03;4038777;85;21040;-85
2021/11/30 17:54:29;;;;;;;7.00;2.77;;;;;;;2.50;85.24;96955.75;4097468;83;22056;-85
2021/11/30 18:00:31;;;;;;;9.10;4.12;;;;;;;2.53;85.36;96956.36;4026738;86;21567;-85
2021/11/30 18:06:33;;;;;;;6.10;2.87;;;;;;;2.55;85.41;96968.89;4111980;83;21120;-84
2021/11/30 18:12:35;;;;;;;8.65;4.12;;;;;;;2.63;85.19;96971.11;4117737;83;21007;-84
2021/11/30 18:24:40;;;;;;;7.12;3.05;;;;;;;2.62;85.90;96974.94;4087667;83;21102;-84
2021/11/30 18:30:41;;;;;;;7.67;3.35;;;;;;;2.59;85.99;96974.34;4096825;83;21072;-84
2021/11/30 18:43:19;;;;;;;16.48;6.83;;;;;;;2.62;86.03;96973.02;4101261;83;21062;-84
2021/11/30 18:49:20;;;;;;;15.28;6.22;;;;;;;2.70;85.84;96965.76;4092164;83;21038;-84
2021/11/30 18:55:22;;;;;;;10.20;5.05;;;;;;;2.76;85.74;96971.81;4100187;83;21139;-85
2021/11/30 19:01:35;;;;;;;8.88;4.22;;;;;;;2.81;85.83;96984.20;4031008;85;21186;-84
2021/11/30 19:07:36;;;;;;;4.53;2.35;;;;;;;2.89;85.81;96992.01;4050741;85;21089;-85
2021/11/30 19:13:42;;;;;;;6.33;2.08;;;;;;;2.95;85.76;96994.56;4041346;85;21114;-84
2021/11/30 19:19:43;;;;;;;4.65;2.17;;;;;;;2.96;85.99;97012.33;4056042;85;21088;-84
2021/11/30 19:25:51;;;;;;;6.85;2.95;;;;;;;2.94;86.09;96990.89;4023264;86;21142;-84
2021/11/30 19:32:17;;;;;;;7.50;2.87;;;;;;;2.89;86.10;97016.33;4053823;84;21078;-84
2021/11/30 19:38:24;;;;;;;4.22;2.02;;;;;;;2.88;86.14;97010.70;4080870;83;21672;-84
2021/11/30 19:44:40;;;;;;;7.60;2.83;;;;;;;2.93;86.19;97030.64;4067575;84;21115;-84
2021/11/30 19:50:56;;;;;;;6.97;3.20;;;;;;;2.90;86.18;97032.73;4067822;84;21061;-83
2021/11/30 19:57:02;;;;;;;7.85;3.22;;;;;;;2.94;86.32;97047.05;4044331;85;21094;-83
2021/11/30 20:09:29;;;;;;;9.73;3.87;;;;;;;2.97;86.27;97057.71;4106013;83;21071;-83
2021/11/30 20:15:50;;;;;;;7.62;3.80;;;;;;;2.93;86.43;97046.86;4148887;84;21050;-85
2021/11/30 20:21:49;;;;;;;8.63;4.15;;;;;;;2.95;86.41;97049.19;4017401;85;22004;-85
2021/11/30 20:28:01;;;;;;;7.55;3.37;;;;;;;2.95;86.49;97067.55;4064890;84;21733;-83
2021/11/30 20:34:04;;;;;;;8.88;3.52;;;;;;;2.94;86.72;97055.16;4063063;85;21082;-85
2021/11/30 20:40:24;;;;;;;6.35;3.15;;;;;;;2.91;86.93;97070.77;4018442;86;21135;-85
2021/11/30 20:46:34;;;;;;;7.65;3.47;;;;;;;2.85;87.10;97069.55;4031867;85;21171;-84
2021/11/30 20:52:44;;;;;;;7.55;2.80;;;;;;;2.81;87.59;97079.56;4109763;84;21086;-83
2021/11/30 20:58:50;;;;;;;9.18;2.58;;;;;;;2.76;87.74;97075.83;4047676;85;21149;-83
2021/11/30 21:05:31;;;;;;;7.30;3.15;;;;;;;2.80;87.78;97092.09;4033299;85;21150;-84
2021/11/30 21:11:42;;;;;;;9.10;3.10;;;;;;;2.82;88.00;97074.91;4019798;86;21689;-84
2021/11/30 21:30:26;;;;;;;4.35;2.00;;;;;;;3.02;87.26;97115.50;4672547;74;26426;-83
2021/11/30 21:37:02;;;;;;;6.92;3.02;;;;;;;3.01;87.16;97128.78;4590200;75;21016;-82
2021/11/30 21:43:08;;;;;;;6.78;2.45;;;;;;;3.04;87.12;97139.64;4573476;75;21033;-84
2021/11/30 21:49:29;;;;;;;7.62;2.27;;;;;;;3.06;86.91;97140.63;4563841;75;21012;-84
2021/11/30 21:55:42;;;;;;;5.83;1.92;;;;;;;3.16;85.89;97139.97;4599022;75;20992;-84
2021/11/30 22:02:24;;;;;;;5.03;1.55;;;;;;;3.27;85.29;97156.30;4539073;76;21067;-82
2021/11/30 22:08:32;;;;;;;3.72;1.52;;;;;;;3.24;85.51;97178.86;4521174;76;21977;-84
2021/11/30 22:14:36;;;;;;;8.00;1.90;;;;;;;3.23;84.58;97169.20;4533327;76;21064;-85
2021/11/30 22:20:38;;;;;;;4.67;1.90;;;;;;;3.24;85.12;97178.11;4544550;76;20994;-84
2021/11/30 22:26:46;;;;;;;6.28;3.20;;;;;;;3.27;84.42;97195.50;4521508;76;21025;-84
2021/11/30 22:32:59;;;;;;;6.87;1.92;;;;;;;3.27;84.96;97204.41;4541931;76;21040;-83
2021/11/30 22:39:01;;;;;;;8.00;3.05;;;;;;;3.30;84.64;97235.33;4532768;76;21886;-83
2021/11/30 22:45:12;;;;;;;8.43;2.47;;;;;;;3.23;84.83;97225.20;4532334;77;20989;-84
2021/11/30 22:51:18;;;;;;;9.93;3.02;;;;;;;3.19;84.85;97231.16;4530167;76;21029;-83
2021/11/30 22:57:24;;;;;;;9.68;3.20;;;;;;;3.15;85.17;97233.02;4547384;76;21516;-84
2021/11/30 23:03:28;;;;;;;7.97;3.72;;;;;;;3.11;85.40;97240.33;4533821;76;21008;-84
2021/11/30 23:09:29;;;;;;;11.15;3.92;;;;;;;3.12;85.42;97258.09;4535865;76;21590;-84
2021/11/30 23:15:31;;;;;;;6.55;2.65;;;;;;;3.15;85.27;97270.31;4539674;76;21033;-84
2021/11/30 23:21:33;;;;;;;9.30;2.58;;;;;;;3.15;85.16;97281.13;4533674;76;21044;-83
2021/11/30 23:27:52;;;;;;;14.33;3.77;;;;;;;3.17;84.96;97295.06;4547822;76;21038;-84
2021/11/30 23:33:57;;;;;;;9.83;2.80;;;;;;;3.23;84.33;97311.73;4538826;76;21052;-84
2021/11/30 23:40:06;;;;;;;7.78;3.20;;;;;;;3.18;84.31;97311.48;4376427;79;21495;-83
2021/11/30 23:46:04;;;;;;;7.12;2.10;;;;;;;3.12;84.76;97325.69;4534046;76;21062;-83
2021/11/30 23:52:06;;;;;;;23.67;12.20;;;;;;;3.06;85.15;97337.41;4538872;76;21021;-84
2021/11/30 23:58:18;;;;;;;24.40;10.78;;;;;;;2.92;85.62;97353.42;4529958;76;21020;-83
